sensor_id;sensor_type;location;lat;lon;timestamp;P1;durP1;ratioP1;P2;durP2;ratioP2
34278;SDS011;20538;51.528;9.942;2023-09-12T00:00:08;11.75;;;4.80;;
34278;SDS011;20538;51.528;9.942;2023-09-12T00:02:34;9.27;;;4.53;;
34278;SDS011;20538;51.528;9.942;2023-09-12T00:05:00;11.32;;;5.15;;
34278;SDS011;20538;51.528;9.942;2023-09-12T00:07:26;9.15;;;4.57;;
34278;SDS011;20538;51.528;9.942;2023-09-12T00:09:52;14.13;;;5.15;;
34278;SDS011;20538;51.528;9.942;2023-09-12T00:12:17;14.55;;;4.95;;
34278;SDS011;20538;51.528;9.942;2023-09-12T00:14:48;6.55;;;4.55;;
34278;SDS011;20538;51.528;9.942;2023-09-12T00:17:14;15.98;;;5.22;;
34278;SDS011;20538;51.528;9.942;2023-09-12T00:19:39;10.57;;;4.93;;
34278;SDS011;20538;51.528;9.942;2023-09-12T00:22:05;14.98;;;4.80;;
34278;SDS011;20538;51.528;9.942;2023-09-12T00:24:31;6.25;;;3.75;;
34278;SDS011;20538;51.528;9.942;2023-09-12T00:26:56;8.73;;;4.55;;
34278;SDS011;20538;51.528;9.942;2023-09-12T00:29:22;10.10;;;4.50;;
34278;SDS011;20538;51.528;9.942;2023-09-12T00:31:47;10.20;;;4.30;;
34278;SDS011;20538;51.528;9.942;2023-09-12T00:34:16;10.15;;;5.30;;
34278;SDS011;20538;51.528;9.942;2023-09-12T00:36:42;6.93;;;4.15;;
34278;SDS011;20538;51.528;9.942;2023-09-12T00:39:08;10.50;;;4.95;;
34278;SDS011;20538;51.528;9.942;2023-09-12T00:41:33;6.55;;;4.15;;
34278;SDS011;20538;51.528;9.942;2023-09-12T00:43:59;11.75;;;4.70;;
34278;SDS011;20538;51.528;9.942;2023-09-12T00:46:25;8.85;;;5.53;;
34278;SDS011;20538;51.528;9.942;2023-09-12T00:48:52;10.25;;;4.85;;
34278;SDS011;20538;51.528;9.942;2023-09-12T00:51:19;17.90;;;4.80;;
34278;SDS011;20538;51.528;9.942;2023-09-12T00:53:46;8.52;;;4.28;;
34278;SDS011;20538;51.528;9.942;2023-09-12T00:56:12;16.60;;;4.97;;
34278;SDS011;20538;51.528;9.942;2023-09-12T00:58:38;11.82;;;4.60;;
34278;SDS011;20538;51.528;9.942;2023-09-12T01:01:05;9.77;;;4.82;;
34278;SDS011;20538;51.528;9.942;2023-09-12T01:03:30;7.93;;;5.03;;
34278;SDS011;20538;51.528;9.942;2023-09-12T01:05:57;8.48;;;4.32;;
34278;SDS011;20538;51.528;9.942;2023-09-12T01:08:24;13.23;;;4.80;;
34278;SDS011;20538;51.528;9.942;2023-09-12T01:10:50;12.07;;;5.30;;
34278;SDS011;20538;51.528;9.942;2023-09-12T01:13:18;13.38;;;5.05;;
34278;SDS011;20538;51.528;9.942;2023-09-12T01:15:44;8.23;;;4.50;;
34278;SDS011;20538;51.528;9.942;2023-09-12T01:18:10;10.32;;;5.28;;
34278;SDS011;20538;51.528;9.942;2023-09-12T01:20:36;13.85;;;5.20;;
34278;SDS011;20538;51.528;9.942;2023-09-12T01:25:42;9.80;;;5.18;;
34278;SDS011;20538;51.528;9.942;2023-09-12T01:28:17;9.82;;;5.00;;
34278;SDS011;20538;51.528;9.942;2023-09-12T01:30:43;15.27;;;5.20;;
34278;SDS011;20538;51.528;9.942;2023-09-12T01:33:11;9.63;;;5.32;;
34278;SDS011;20538;51.528;9.942;2023-09-12T01:35:37;12.05;;;4.82;;
34278;SDS011;20538;51.528;9.942;2023-09-12T01:38:03;8.70;;;5.55;;
34278;SDS011;20538;51.528;9.942;2023-09-12T01:40:32;8.75;;;5.38;;
34278;SDS011;20538;51.528;9.942;2023-09-12T01:43:02;12.90;;;4.90;;
34278;SDS011;20538;51.528;9.942;2023-09-12T01:45:30;12.02;;;5.75;;
34278;SDS011;20538;51.528;9.942;2023-09-12T01:47:56;12.63;;;5.25;;
34278;SDS011;20538;51.528;9.942;2023-09-12T01:50:23;13.20;;;5.45;;
34278;SDS011;20538;51.528;9.942;2023-09-12T01:52:52;10.57;;;4.57;;
34278;SDS011;20538;51.528;9.942;2023-09-12T01:55:18;14.10;;;5.32;;
34278;SDS011;20538;51.528;9.942;2023-09-12T01:57:45;9.27;;;5.30;;
34278;SDS011;20538;51.528;9.942;2023-09-12T02:00:12;15.40;;;5.10;;
34278;SDS011;20538;51.528;9.942;2023-09-12T02:02:38;14.35;;;5.82;;
34278;SDS011;20538;51.528;9.942;2023-09-12T02:05:09;8.30;;;5.53;;
34278;SDS011;20538;51.528;9.942;2023-09-12T02:07:44;10.18;;;4.65;;
34278;SDS011;20538;51.528;9.942;2023-09-12T02:10:10;10.13;;;4.82;;
34278;SDS011;20538;51.528;9.942;2023-09-12T02:12:36;5.93;;;4.18;;
34278;SDS011;20538;51.528;9.942;2023-09-12T02:15:02;9.48;;;5.43;;
34278;SDS011;20538;51.528;9.942;2023-09-12T02:17:28;7.32;;;4.72;;
34278;SDS011;20538;51.528;9.942;2023-09-12T02:19:54;9.15;;;4.97;;
34278;SDS011;20538;51.528;9.942;2023-09-12T02:22:19;8.98;;;5.10;;
34278;SDS011;20538;51.528;9.942;2023-09-12T02:24:45;8.50;;;4.32;;
34278;SDS011;20538;51.528;9.942;2023-09-12T02:27:11;10.30;;;4.82;;
34278;SDS011;20538;51.528;9.942;2023-09-12T02:29:38;8.60;;;4.57;;
34278;SDS011;20538;51.528;9.942;2023-09-12T02:32:04;10.15;;;4.65;;
34278;SDS011;20538;51.528;9.942;2023-09-12T02:34:30;13.60;;;5.15;;
34278;SDS011;20538;51.528;9.942;2023-09-12T02:36:56;8.40;;;4.82;;
34278;SDS011;20538;51.528;9.942;2023-09-12T02:39:21;7.22;;;4.50;;
34278;SDS011;20538;51.528;9.942;2023-09-12T02:41:47;14.02;;;5.18;;
34278;SDS011;20538;51.528;9.942;2023-09-12T02:44:13;12.50;;;5.10;;
34278;SDS011;20538;51.528;9.942;2023-09-12T02:46:38;9.35;;;5.15;;
34278;SDS011;20538;51.528;9.942;2023-09-12T02:49:04;18.42;;;6.03;;
34278;SDS011;20538;51.528;9.942;2023-09-12T02:51:29;7.68;;;5.30;;
34278;SDS011;20538;51.528;9.942;2023-09-12T02:53:56;10.55;;;6.38;;
34278;SDS011;20538;51.528;9.942;2023-09-12T02:56:22;14.02;;;5.97;;
34278;SDS011;20538;51.528;9.942;2023-09-12T02:58:47;12.10;;;6.15;;
34278;SDS011;20538;51.528;9.942;2023-09-12T03:01:14;10.75;;;5.95;;
34278;SDS011;20538;51.528;9.942;2023-09-12T03:03:41;13.02;;;5.93;;
34278;SDS011;20538;51.528;9.942;2023-09-12T03:06:07;10.23;;;6.10;;
34278;SDS011;20538;51.528;9.942;2023-09-12T03:08:32;11.00;;;5.47;;
34278;SDS011;20538;51.528;9.942;2023-09-12T03:10:58;9.52;;;5.25;;
34278;SDS011;20538;51.528;9.942;2023-09-12T03:13:27;14.60;;;5.15;;
34278;SDS011;20538;51.528;9.942;2023-09-12T03:15:53;18.02;;;5.53;;
34278;SDS011;20538;51.528;9.942;2023-09-12T03:18:19;15.48;;;5.13;;
34278;SDS011;20538;51.528;9.942;2023-09-12T03:20:45;9.98;;;5.82;;
34278;SDS011;20538;51.528;9.942;2023-09-12T03:23:10;14.00;;;5.55;;
34278;SDS011;20538;51.528;9.942;2023-09-12T03:25:36;13.98;;;5.88;;
34278;SDS011;20538;51.528;9.942;2023-09-12T03:28:03;10.45;;;5.53;;
34278;SDS011;20538;51.528;9.942;2023-09-12T03:30:31;11.00;;;5.65;;
34278;SDS011;20538;51.528;9.942;2023-09-12T03:33:00;8.15;;;5.30;;
34278;SDS011;20538;51.528;9.942;2023-09-12T03:35:26;12.80;;;5.53;;
34278;SDS011;20538;51.528;9.942;2023-09-12T03:37:56;10.52;;;6.13;;
34278;SDS011;20538;51.528;9.942;2023-09-12T03:40:22;12.20;;;5.65;;
34278;SDS011;20538;51.528;9.942;2023-09-12T03:42:47;24.55;;;7.00;;
34278;SDS011;20538;51.528;9.942;2023-09-12T03:45:13;12.70;;;5.22;;
34278;SDS011;20538;51.528;9.942;2023-09-12T03:47:38;8.50;;;5.55;;
34278;SDS011;20538;51.528;9.942;2023-09-12T03:50:04;12.23;;;5.57;;
34278;SDS011;20538;51.528;9.942;2023-09-12T03:52:30;10.40;;;5.10;;
34278;SDS011;20538;51.528;9.942;2023-09-12T03:54:56;9.25;;;5.50;;
34278;SDS011;20538;51.528;9.942;2023-09-12T03:57:22;10.07;;;5.47;;
34278;SDS011;20538;51.528;9.942;2023-09-12T03:59:47;14.25;;;6.20;;
34278;SDS011;20538;51.528;9.942;2023-09-12T04:02:13;12.13;;;5.10;;
34278;SDS011;20538;51.528;9.942;2023-09-12T04:04:39;10.68;;;5.57;;
34278;SDS011;20538;51.528;9.942;2023-09-12T04:07:04;9.38;;;5.30;;
34278;SDS011;20538;51.528;9.942;2023-09-12T04:09:30;17.38;;;5.90;;
34278;SDS011;20538;51.528;9.942;2023-09-12T04:11:56;9.13;;;5.43;;
34278;SDS011;20538;51.528;9.942;2023-09-12T04:14:22;11.50;;;5.90;;
34278;SDS011;20538;51.528;9.942;2023-09-12T04:16:47;10.65;;;5.72;;
34278;SDS011;20538;51.528;9.942;2023-09-12T04:19:13;11.32;;;5.97;;
34278;SDS011;20538;51.528;9.942;2023-09-12T04:21:39;8.27;;;5.60;;
34278;SDS011;20538;51.528;9.942;2023-09-12T04:24:06;15.30;;;5.95;;
34278;SDS011;20538;51.528;9.942;2023-09-12T04:26:34;11.02;;;6.32;;
34278;SDS011;20538;51.528;9.942;2023-09-12T04:29:00;19.85;;;5.65;;
34278;SDS011;20538;51.528;9.942;2023-09-12T04:31:25;8.90;;;5.10;;
34278;SDS011;20538;51.528;9.942;2023-09-12T04:33:51;9.68;;;5.50;;
34278;SDS011;20538;51.528;9.942;2023-09-12T04:36:18;8.98;;;5.38;;
34278;SDS011;20538;51.528;9.942;2023-09-12T04:38:43;16.17;;;5.97;;
34278;SDS011;20538;51.528;9.942;2023-09-12T04:41:11;9.95;;;5.45;;
34278;SDS011;20538;51.528;9.942;2023-09-12T04:43:40;9.95;;;5.20;;
34278;SDS011;20538;51.528;9.942;2023-09-12T04:46:06;15.80;;;6.00;;
34278;SDS011;20538;51.528;9.942;2023-09-12T04:48:32;19.95;;;5.75;;
34278;SDS011;20538;51.528;9.942;2023-09-12T04:50:58;10.75;;;6.10;;
34278;SDS011;20538;51.528;9.942;2023-09-12T04:53:23;12.65;;;6.40;;
34278;SDS011;20538;51.528;9.942;2023-09-12T04:55:51;14.90;;;6.82;;
34278;SDS011;20538;51.528;9.942;2023-09-12T04:58:18;10.45;;;5.80;;
34278;SDS011;20538;51.528;9.942;2023-09-12T05:00:44;9.45;;;5.38;;
34278;SDS011;20538;51.528;9.942;2023-09-12T05:03:10;14.05;;;6.10;;
34278;SDS011;20538;51.528;9.942;2023-09-12T05:05:36;12.57;;;6.68;;
34278;SDS011;20538;51.528;9.942;2023-09-12T05:08:01;13.38;;;5.55;;
34278;SDS011;20538;51.528;9.942;2023-09-12T05:10:28;21.75;;;6.50;;
34278;SDS011;20538;51.528;9.942;2023-09-12T05:12:55;8.88;;;6.35;;
34278;SDS011;20538;51.528;9.942;2023-09-12T05:15:20;10.35;;;7.07;;
34278;SDS011;20538;51.528;9.942;2023-09-12T05:17:46;18.38;;;6.82;;
34278;SDS011;20538;51.528;9.942;2023-09-12T05:20:11;10.23;;;5.75;;
34278;SDS011;20538;51.528;9.942;2023-09-12T05:22:37;11.45;;;6.00;;
34278;SDS011;20538;51.528;9.942;2023-09-12T05:25:03;14.57;;;6.60;;
34278;SDS011;20538;51.528;9.942;2023-09-12T05:27:29;14.02;;;6.60;;
34278;SDS011;20538;51.528;9.942;2023-09-12T05:29:54;11.18;;;6.13;;
34278;SDS011;20538;51.528;9.942;2023-09-12T05:32:21;14.95;;;6.25;;
34278;SDS011;20538;51.528;9.942;2023-09-12T05:34:47;16.20;;;6.03;;
34278;SDS011;20538;51.528;9.942;2023-09-12T05:37:14;14.10;;;6.28;;
34278;SDS011;20538;51.528;9.942;2023-09-12T05:39:40;11.48;;;6.75;;
34278;SDS011;20538;51.528;9.942;2023-09-12T05:42:06;10.05;;;6.35;;
34278;SDS011;20538;51.528;9.942;2023-09-12T05:44:32;10.88;;;6.53;;
34278;SDS011;20538;51.528;9.942;2023-09-12T05:46:58;10.75;;;6.20;;
34278;SDS011;20538;51.528;9.942;2023-09-12T05:49:23;12.55;;;6.38;;
34278;SDS011;20538;51.528;9.942;2023-09-12T05:51:49;11.25;;;6.15;;
34278;SDS011;20538;51.528;9.942;2023-09-12T05:54:15;19.83;;;6.05;;
34278;SDS011;20538;51.528;9.942;2023-09-12T05:56:41;12.48;;;5.45;;
34278;SDS011;20538;51.528;9.942;2023-09-12T05:59:07;16.70;;;5.85;;
34278;SDS011;20538;51.528;9.942;2023-09-12T06:01:33;11.32;;;5.22;;
34278;SDS011;20538;51.528;9.942;2023-09-12T06:03:59;11.02;;;6.03;;
34278;SDS011;20538;51.528;9.942;2023-09-12T06:06:24;14.50;;;5.63;;
34278;SDS011;20538;51.528;9.942;2023-09-12T06:08:50;15.35;;;5.45;;
34278;SDS011;20538;51.528;9.942;2023-09-12T06:11:18;13.18;;;5.88;;
34278;SDS011;20538;51.528;9.942;2023-09-12T06:13:47;10.13;;;5.63;;
34278;SDS011;20538;51.528;9.942;2023-09-12T06:21:28;10.07;;;6.60;;
34278;SDS011;20538;51.528;9.942;2023-09-12T06:24:07;10.98;;;5.57;;
34278;SDS011;20538;51.528;9.942;2023-09-12T06:26:44;10.82;;;5.40;;
34278;SDS011;20538;51.528;9.942;2023-09-12T06:29:09;12.25;;;6.55;;
34278;SDS011;20538;51.528;9.942;2023-09-12T06:31:35;10.23;;;6.75;;
34278;SDS011;20538;51.528;9.942;2023-09-12T06:34:01;15.50;;;6.22;;
34278;SDS011;20538;51.528;9.942;2023-09-12T06:36:27;11.40;;;7.35;;
34278;SDS011;20538;51.528;9.942;2023-09-12T06:38:56;13.43;;;6.07;;
34278;SDS011;20538;51.528;9.942;2023-09-12T06:41:23;15.48;;;6.05;;
34278;SDS011;20538;51.528;9.942;2023-09-12T06:43:49;12.13;;;6.28;;
34278;SDS011;20538;51.528;9.942;2023-09-12T06:46:14;12.63;;;6.63;;
34278;SDS011;20538;51.528;9.942;2023-09-12T06:48:42;13.48;;;6.72;;
34278;SDS011;20538;51.528;9.942;2023-09-12T06:51:12;15.35;;;6.72;;
34278;SDS011;20538;51.528;9.942;2023-09-12T06:53:38;12.50;;;6.10;;
34278;SDS011;20538;51.528;9.942;2023-09-12T06:56:04;13.52;;;5.90;;
34278;SDS011;20538;51.528;9.942;2023-09-12T06:58:30;13.57;;;5.75;;
34278;SDS011;20538;51.528;9.942;2023-09-12T07:00:56;10.20;;;6.47;;
34278;SDS011;20538;51.528;9.942;2023-09-12T07:03:31;14.68;;;5.72;;
34278;SDS011;20538;51.528;9.942;2023-09-12T07:05:58;17.77;;;6.38;;
34278;SDS011;20538;51.528;9.942;2023-09-12T07:08:24;14.00;;;5.82;;
34278;SDS011;20538;51.528;9.942;2023-09-12T07:10:50;12.85;;;6.38;;
34278;SDS011;20538;51.528;9.942;2023-09-12T07:13:16;9.98;;;6.57;;
34278;SDS011;20538;51.528;9.942;2023-09-12T07:15:42;9.95;;;5.78;;
34278;SDS011;20538;51.528;9.942;2023-09-12T07:18:07;13.60;;;5.40;;
34278;SDS011;20538;51.528;9.942;2023-09-12T07:20:33;11.70;;;6.20;;
34278;SDS011;20538;51.528;9.942;2023-09-12T07:22:59;10.88;;;6.55;;
34278;SDS011;20538;51.528;9.942;2023-09-12T07:25:25;10.82;;;6.15;;
34278;SDS011;20538;51.528;9.942;2023-09-12T07:27:51;10.68;;;6.80;;
34278;SDS011;20538;51.528;9.942;2023-09-12T07:30:16;16.35;;;5.88;;
34278;SDS011;20538;51.528;9.942;2023-09-12T07:32:43;10.05;;;4.95;;
34278;SDS011;20538;51.528;9.942;2023-09-12T07:35:08;16.88;;;6.28;;
34278;SDS011;20538;51.528;9.942;2023-09-12T07:37:35;12.73;;;6.43;;
34278;SDS011;20538;51.528;9.942;2023-09-12T07:40:03;18.05;;;6.80;;
34278;SDS011;20538;51.528;9.942;2023-09-12T07:42:37;7.43;;;5.10;;
34278;SDS011;20538;51.528;9.942;2023-09-12T07:45:03;17.05;;;6.53;;
34278;SDS011;20538;51.528;9.942;2023-09-12T07:47:29;11.05;;;5.00;;
34278;SDS011;20538;51.528;9.942;2023-09-12T07:49:57;12.02;;;5.57;;
34278;SDS011;20538;51.528;9.942;2023-09-12T07:52:24;10.30;;;5.45;;
34278;SDS011;20538;51.528;9.942;2023-09-12T07:54:50;16.95;;;5.95;;
34278;SDS011;20538;51.528;9.942;2023-09-12T07:57:18;13.77;;;5.13;;
34278;SDS011;20538;51.528;9.942;2023-09-12T07:59:44;9.35;;;5.28;;
34278;SDS011;20538;51.528;9.942;2023-09-12T08:02:10;11.88;;;5.05;;
34278;SDS011;20538;51.528;9.942;2023-09-12T08:04:37;12.57;;;5.68;;
34278;SDS011;20538;51.528;9.942;2023-09-12T08:07:03;10.23;;;5.30;;
34278;SDS011;20538;51.528;9.942;2023-09-12T08:09:49;12.20;;;5.80;;
34278;SDS011;20538;51.528;9.942;2023-09-12T08:12:18;12.73;;;5.72;;
34278;SDS011;20538;51.528;9.942;2023-09-12T08:14:50;13.98;;;6.30;;
34278;SDS011;20538;51.528;9.942;2023-09-12T08:17:16;12.70;;;5.22;;
34278;SDS011;20538;51.528;9.942;2023-09-12T08:19:43;10.38;;;5.63;;
34278;SDS011;20538;51.528;9.942;2023-09-12T08:22:09;14.35;;;5.82;;
34278;SDS011;20538;51.528;9.942;2023-09-12T08:24:36;12.13;;;5.95;;
34278;SDS011;20538;51.528;9.942;2023-09-12T08:27:03;11.63;;;5.57;;
34278;SDS011;20538;51.528;9.942;2023-09-12T08:29:29;12.80;;;5.55;;
34278;SDS011;20538;51.528;9.942;2023-09-12T08:31:57;10.27;;;5.53;;
34278;SDS011;20538;51.528;9.942;2023-09-12T08:34:25;8.95;;;5.85;;
34278;SDS011;20538;51.528;9.942;2023-09-12T08:36:51;9.43;;;5.28;;
34278;SDS011;20538;51.528;9.942;2023-09-12T08:39:18;9.07;;;4.93;;
34278;SDS011;20538;51.528;9.942;2023-09-12T08:41:52;7.63;;;4.97;;
34278;SDS011;20538;51.528;9.942;2023-09-12T08:44:18;11.38;;;5.18;;
34278;SDS011;20538;51.528;9.942;2023-09-12T08:46:45;9.00;;;4.85;;
34278;SDS011;20538;51.528;9.942;2023-09-12T08:49:12;8.48;;;5.47;;
34278;SDS011;20538;51.528;9.942;2023-09-12T08:51:43;12.88;;;4.70;;
34278;SDS011;20538;51.528;9.942;2023-09-12T08:54:10;5.90;;;4.30;;
34278;SDS011;20538;51.528;9.942;2023-09-12T08:56:36;9.32;;;4.78;;
34278;SDS011;20538;51.528;9.942;2023-09-12T08:59:04;7.90;;;3.80;;
34278;SDS011;20538;51.528;9.942;2023-09-12T09:01:31;8.63;;;3.55;;
34278;SDS011;20538;51.528;9.942;2023-09-12T09:03:58;5.03;;;3.95;;
34278;SDS011;20538;51.528;9.942;2023-09-12T09:06:27;9.43;;;4.45;;
34278;SDS011;20538;51.528;9.942;2023-09-12T09:08:56;25.25;;;6.50;;
34278;SDS011;20538;51.528;9.942;2023-09-12T09:11:30;8.43;;;4.45;;
34278;SDS011;20538;51.528;9.942;2023-09-12T09:13:55;11.27;;;4.68;;
34278;SDS011;20538;51.528;9.942;2023-09-12T09:16:21;10.93;;;5.30;;
34278;SDS011;20538;51.528;9.942;2023-09-12T09:18:52;12.52;;;4.60;;
34278;SDS011;20538;51.528;9.942;2023-09-12T09:21:30;7.45;;;4.75;;
34278;SDS011;20538;51.528;9.942;2023-09-12T09:24:00;8.52;;;4.45;;
34278;SDS011;20538;51.528;9.942;2023-09-12T09:29:15;7.22;;;4.20;;
34278;SDS011;20538;51.528;9.942;2023-09-12T09:31:41;12.13;;;4.38;;
34278;SDS011;20538;51.528;9.942;2023-09-12T09:34:14;9.82;;;4.18;;
34278;SDS011;20538;51.528;9.942;2023-09-12T09:36:41;7.03;;;4.07;;
34278;SDS011;20538;51.528;9.942;2023-09-12T09:39:12;5.53;;;4.15;;
34278;SDS011;20538;51.528;9.942;2023-09-12T09:41:39;8.23;;;4.03;;
34278;SDS011;20538;51.528;9.942;2023-09-12T09:44:06;8.93;;;4.30;;
34278;SDS011;20538;51.528;9.942;2023-09-12T09:46:33;7.82;;;4.25;;
34278;SDS011;20538;51.528;9.942;2023-09-12T09:48:59;7.50;;;4.13;;
34278;SDS011;20538;51.528;9.942;2023-09-12T09:51:26;8.70;;;3.80;;
34278;SDS011;20538;51.528;9.942;2023-09-12T09:53:52;6.28;;;4.50;;
34278;SDS011;20538;51.528;9.942;2023-09-12T09:56:22;7.70;;;4.40;;
34278;SDS011;20538;51.528;9.942;2023-09-12T10:01:18;7.65;;;4.25;;
34278;SDS011;20538;51.528;9.942;2023-09-12T10:03:49;6.13;;;3.97;;
34278;SDS011;20538;51.528;9.942;2023-09-12T10:06:16;6.78;;;3.85;;
34278;SDS011;20538;51.528;9.942;2023-09-12T10:08:44;6.65;;;3.65;;
34278;SDS011;20538;51.528;9.942;2023-09-12T10:11:14;6.38;;;4.07;;
34278;SDS011;20538;51.528;9.942;2023-09-12T10:13:43;3.42;;;2.80;;
34278;SDS011;20538;51.528;9.942;2023-09-12T10:16:22;7.03;;;3.83;;
34278;SDS011;20538;51.528;9.942;2023-09-12T10:18:58;4.50;;;3.25;;
34278;SDS011;20538;51.528;9.942;2023-09-12T10:21:30;11.10;;;3.65;;
34278;SDS011;20538;51.528;9.942;2023-09-12T10:23:57;4.70;;;3.50;;
34278;SDS011;20538;51.528;9.942;2023-09-12T10:26:24;7.57;;;4.72;;
34278;SDS011;20538;51.528;9.942;2023-09-12T10:28:50;6.60;;;4.40;;
34278;SDS011;20538;51.528;9.942;2023-09-12T10:31:16;5.43;;;3.50;;
34278;SDS011;20538;51.528;9.942;2023-09-12T10:33:43;7.38;;;3.53;;
34278;SDS011;20538;51.528;9.942;2023-09-12T10:36:09;5.72;;;4.15;;
34278;SDS011;20538;51.528;9.942;2023-09-12T10:38:40;7.65;;;3.97;;
34278;SDS011;20538;51.528;9.942;2023-09-12T10:41:10;5.80;;;3.65;;
34278;SDS011;20538;51.528;9.942;2023-09-12T10:43:38;8.00;;;3.47;;
34278;SDS011;20538;51.528;9.942;2023-09-12T10:46:06;7.40;;;4.10;;
34278;SDS011;20538;51.528;9.942;2023-09-12T10:48:32;7.65;;;3.75;;
34278;SDS011;20538;51.528;9.942;2023-09-12T10:50:59;9.07;;;3.38;;
34278;SDS011;20538;51.528;9.942;2023-09-12T10:53:27;7.35;;;3.70;;
34278;SDS011;20538;51.528;9.942;2023-09-12T10:56:00;7.75;;;3.75;;
34278;SDS011;20538;51.528;9.942;2023-09-12T11:01:29;9.02;;;4.20;;
34278;SDS011;20538;51.528;9.942;2023-09-12T11:03:58;4.05;;;2.90;;
34278;SDS011;20538;51.528;9.942;2023-09-12T11:06:30;6.13;;;3.20;;
34278;SDS011;20538;51.528;9.942;2023-09-12T11:33:24;4.53;;;2.88;;
34278;SDS011;20538;51.528;9.942;2023-09-12T11:36:33;5.50;;;3.15;;
34278;SDS011;20538;51.528;9.942;2023-09-12T11:39:34;4.97;;;3.30;;
34278;SDS011;20538;51.528;9.942;2023-09-12T11:52:38;17.25;;;4.43;;
34278;SDS011;20538;51.528;9.942;2023-09-12T11:55:04;5.32;;;3.55;;
34278;SDS011;20538;51.528;9.942;2023-09-12T11:57:31;12.98;;;4.25;;
34278;SDS011;20538;51.528;9.942;2023-09-12T11:59:57;5.88;;;3.50;;
34278;SDS011;20538;51.528;9.942;2023-09-12T12:02:22;6.00;;;2.97;;
34278;SDS011;20538;51.528;9.942;2023-09-12T12:04:55;3.95;;;3.55;;
34278;SDS011;20538;51.528;9.942;2023-09-12T12:07:24;4.00;;;2.88;;
34278;SDS011;20538;51.528;9.942;2023-09-12T12:09:50;4.57;;;2.97;;
34278;SDS011;20538;51.528;9.942;2023-09-12T12:12:15;4.32;;;2.90;;
34278;SDS011;20538;51.528;9.942;2023-09-12T12:14:41;3.95;;;3.05;;
34278;SDS011;20538;51.528;9.942;2023-09-12T12:17:09;5.07;;;3.13;;
34278;SDS011;20538;51.528;9.942;2023-09-12T12:19:35;3.30;;;2.70;;
34278;SDS011;20538;51.528;9.942;2023-09-12T12:22:02;5.15;;;3.17;;
34278;SDS011;20538;51.528;9.942;2023-09-12T12:24:37;3.95;;;2.65;;
34278;SDS011;20538;51.528;9.942;2023-09-12T12:27:04;3.35;;;2.38;;
34278;SDS011;20538;51.528;9.942;2023-09-12T12:29:32;5.40;;;2.50;;
34278;SDS011;20538;51.528;9.942;2023-09-12T12:32:01;3.55;;;2.45;;
34278;SDS011;20538;51.528;9.942;2023-09-12T12:34:30;6.22;;;2.75;;
34278;SDS011;20538;51.528;9.942;2023-09-12T12:36:56;2.60;;;2.17;;
34278;SDS011;20538;51.528;9.942;2023-09-12T12:39:22;4.47;;;2.35;;
34278;SDS011;20538;51.528;9.942;2023-09-12T12:41:51;2.85;;;2.03;;
34278;SDS011;20538;51.528;9.942;2023-09-12T12:44:18;4.75;;;2.00;;
34278;SDS011;20538;51.528;9.942;2023-09-12T12:46:47;3.17;;;1.90;;
34278;SDS011;20538;51.528;9.942;2023-09-12T12:49:17;1.98;;;1.60;;
34278;SDS011;20538;51.528;9.942;2023-09-12T12:51:43;4.85;;;2.30;;
34278;SDS011;20538;51.528;9.942;2023-09-12T12:54:10;4.95;;;2.88;;
34278;SDS011;20538;51.528;9.942;2023-09-12T12:56:36;3.17;;;2.33;;
34278;SDS011;20538;51.528;9.942;2023-09-12T12:59:03;3.78;;;2.38;;
34278;SDS011;20538;51.528;9.942;2023-09-12T13:01:34;6.15;;;2.63;;
34278;SDS011;20538;51.528;9.942;2023-09-12T13:04:01;3.75;;;2.28;;
34278;SDS011;20538;51.528;9.942;2023-09-12T13:06:27;2.70;;;2.00;;
34278;SDS011;20538;51.528;9.942;2023-09-12T13:08:55;2.40;;;2.03;;
34278;SDS011;20538;51.528;9.942;2023-09-12T13:11:26;2.35;;;1.85;;
34278;SDS011;20538;51.528;9.942;2023-09-12T13:13:52;2.90;;;1.95;;
34278;SDS011;20538;51.528;9.942;2023-09-12T13:16:18;4.20;;;2.25;;
34278;SDS011;20538;51.528;9.942;2023-09-12T13:18:43;2.83;;;1.80;;
34278;SDS011;20538;51.528;9.942;2023-09-12T13:21:09;3.53;;;2.25;;
34278;SDS011;20538;51.528;9.942;2023-09-12T13:23:35;3.53;;;2.33;;
34278;SDS011;20538;51.528;9.942;2023-09-12T13:26:02;2.38;;;1.70;;
34278;SDS011;20538;51.528;9.942;2023-09-12T13:28:29;2.33;;;1.92;;
34278;SDS011;20538;51.528;9.942;2023-09-12T13:30:55;2.75;;;2.22;;
34278;SDS011;20538;51.528;9.942;2023-09-12T13:33:22;2.58;;;2.13;;
34278;SDS011;20538;51.528;9.942;2023-09-12T13:35:48;3.78;;;1.95;;
34278;SDS011;20538;51.528;9.942;2023-09-12T13:38:14;5.60;;;2.17;;
34278;SDS011;20538;51.528;9.942;2023-09-12T13:40:43;2.95;;;2.30;;
34278;SDS011;20538;51.528;9.942;2023-09-12T13:43:09;2.85;;;1.95;;
34278;SDS011;20538;51.528;9.942;2023-09-12T13:45:35;2.95;;;2.00;;
34278;SDS011;20538;51.528;9.942;2023-09-12T13:48:01;3.90;;;2.50;;
34278;SDS011;20538;51.528;9.942;2023-09-12T13:50:28;2.72;;;1.80;;
34278;SDS011;20538;51.528;9.942;2023-09-12T13:52:57;2.67;;;1.90;;
34278;SDS011;20538;51.528;9.942;2023-09-12T13:55:24;3.15;;;1.88;;
34278;SDS011;20538;51.528;9.942;2023-09-12T13:57:50;3.63;;;2.45;;
34278;SDS011;20538;51.528;9.942;2023-09-12T14:00:16;3.38;;;2.22;;
34278;SDS011;20538;51.528;9.942;2023-09-12T14:02:42;2.92;;;2.40;;
34278;SDS011;20538;51.528;9.942;2023-09-12T14:05:09;2.78;;;1.98;;
34278;SDS011;20538;51.528;9.942;2023-09-12T14:07:37;3.05;;;2.03;;
34278;SDS011;20538;51.528;9.942;2023-09-12T14:10:04;4.00;;;2.28;;
34278;SDS011;20538;51.528;9.942;2023-09-12T14:12:31;2.38;;;2.05;;
34278;SDS011;20538;51.528;9.942;2023-09-12T14:14:57;2.85;;;2.00;;
34278;SDS011;20538;51.528;9.942;2023-09-12T14:17:22;3.85;;;2.08;;
34278;SDS011;20538;51.528;9.942;2023-09-12T14:19:48;2.63;;;2.08;;
34278;SDS011;20538;51.528;9.942;2023-09-12T14:22:14;2.63;;;2.22;;
34278;SDS011;20538;51.528;9.942;2023-09-12T14:24:40;2.28;;;2.03;;
34278;SDS011;20538;51.528;9.942;2023-09-12T14:27:06;2.80;;;1.90;;
34278;SDS011;20538;51.528;9.942;2023-09-12T14:29:31;3.67;;;2.30;;
34278;SDS011;20538;51.528;9.942;2023-09-12T14:31:57;2.65;;;1.75;;
34278;SDS011;20538;51.528;9.942;2023-09-12T14:34:23;5.38;;;2.33;;
34278;SDS011;20538;51.528;9.942;2023-09-12T14:36:53;4.75;;;2.50;;
34278;SDS011;20538;51.528;9.942;2023-09-12T14:39:20;3.50;;;2.35;;
34278;SDS011;20538;51.528;9.942;2023-09-12T14:41:46;7.03;;;2.22;;
34278;SDS011;20538;51.528;9.942;2023-09-12T14:44:16;3.95;;;2.58;;
34278;SDS011;20538;51.528;9.942;2023-09-12T14:46:53;5.80;;;3.00;;
34278;SDS011;20538;51.528;9.942;2023-09-12T14:49:19;18.90;;;7.70;;
34278;SDS011;20538;51.528;9.942;2023-09-12T14:51:45;5.53;;;3.33;;
34278;SDS011;20538;51.528;9.942;2023-09-12T14:54:11;5.45;;;2.80;;
34278;SDS011;20538;51.528;9.942;2023-09-12T14:56:36;3.00;;;2.22;;
34278;SDS011;20538;51.528;9.942;2023-09-12T14:59:03;2.75;;;1.70;;
34278;SDS011;20538;51.528;9.942;2023-09-12T15:01:29;2.95;;;2.45;;
34278;SDS011;20538;51.528;9.942;2023-09-12T15:03:55;1.92;;;1.60;;
34278;SDS011;20538;51.528;9.942;2023-09-12T15:06:21;2.85;;;2.00;;
34278;SDS011;20538;51.528;9.942;2023-09-12T15:08:48;8.93;;;2.30;;
34278;SDS011;20538;51.528;9.942;2023-09-12T15:11:15;2.47;;;1.95;;
34278;SDS011;20538;51.528;9.942;2023-09-12T15:13:40;3.47;;;2.10;;
34278;SDS011;20538;51.528;9.942;2023-09-12T15:16:06;4.15;;;1.90;;
34278;SDS011;20538;51.528;9.942;2023-09-12T15:18:32;4.30;;;1.92;;
34278;SDS011;20538;51.528;9.942;2023-09-12T15:20:57;2.30;;;2.00;;
34278;SDS011;20538;51.528;9.942;2023-09-12T15:23:23;4.22;;;2.17;;
34278;SDS011;20538;51.528;9.942;2023-09-12T15:25:52;2.25;;;1.58;;
34278;SDS011;20538;51.528;9.942;2023-09-12T15:28:18;1.98;;;1.50;;
34278;SDS011;20538;51.528;9.942;2023-09-12T15:30:44;3.35;;;1.95;;